Normanton, Queensland

6:53 AM AEST on July 28, 2016 (GMT +1000)
Normanton | | Change Station

Elev 72 ft 17.68 °S, 141.07 °E | Updated 53 minutes ago

Clear
Clear
64 °F
Feels Like 64 °F
N
14
Wind Variable Wind from SSE

Today
High -- | Low -- °F
--% Chance of Precip.
Yesterday
High -- | Low -- °F
Precip. -- in
Pressure 30.06 in
Visibility 6.2 miles
Clouds
Dew Point 39 °F
Humidity 40%
Rainfall 0.00 in
Snow Depth Not available.
7:03 AM 6:20 PM
Last Quarter, 40% visible
METAR YNTN 272000Z AUTO 16012KT 9999 // NCD 18/04 Q1018
Pressure 30.06 in
Visibility 6.2 miles
Clouds
Dew Point 39 °F
Humidity 40%
Rainfall 0.00 in
Snow Depth Not available.
7:03 AM 6:20 PM
Last Quarter, 40% visible
METAR YNTN 272000Z AUTO 16012KT 9999 // NCD 18/04 Q1018

10-Day Weather Forecast

No radar image for this location.
×

Almanac

Astronomy

Jul. 28, 2016 Rise Set
Actual Time
Civil Twilight
Nautical Twilight
Astronomical Twilight
Moon
Length of Visible Light
Length of Day
Tomorrow will be .
, % of the Moon is Illuminated

Today's Extremes

Country Highs Country Lows

Community

WunderPhotos

Upload Photos

1,927,933 photos uploaded!

WunderBlog® & News

Nearby

Air Quality

  Air Quality AQ Index Pollutant
Not available.

Snow Depth

Station Depth Elevation

Earthquake Activity

City Distance Mag. Time & Date
Minimum magnitude displayed is 2.5.

Coastal Water Temperatures

Place Temperature

Stations

Nearby Weather Stations

Station Location Temp. Windchill Dew Point Humidity Wind Precip. Elev Updated Type